Time,TemperatureF,DewpointF,PressureIn,WindDirection,WindDirectionDegrees,WindSpeedMPH,WindSpeedGustMPH,Humidity,HourlyPrecipIn,Conditions,Clouds,dailyrainin,SoftwareType,DateUTC
2013-04-25 00:04:00,58.1,46.1,29.98,SW,227,0.0,0.0,64,0.00,,,0.00,WUHU216WMR968SP,2013-04-25 07:04:00,
2013-04-25 00:09:00,58.1,46.1,29.98,SW,228,0.0,0.0,64,0.00,,,0.00,WUHU216WMR968SP,2013-04-25 07:09:00,
2013-04-25 00:14:00,58.1,46.5,29.98,SW,228,0.0,0.0,65,0.00,,,0.00,WUHU216WMR968SP,2013-04-25 07:14:00,
2013-04-25 00:19:00,58.1,46.5,29.98,SW,219,0.0,0.0,65,0.00,,,0.00,WUHU216WMR968SP,2013-04-25 07:19:00,
2013-04-25 00:24:00,57.9,46.3,29.98,WSW,251,0.0,0.0,65,0.00,,,0.00,WUHU216WMR968SP,2013-04-25 07:24:00,
2013-04-25 00:29:00,57.9,46.3,29.98,WSW,244,0.0,0.0,65,0.00,,,0.00,WUHU216WMR968SP,2013-04-25 07:29:00,
2013-04-25 00:34:00,57.9,46.3,29.98,WSW,244,0.0,0.0,65,0.00,,,0.00,WUHU216WMR968SP,2013-04-25 07:34:00,
2013-04-25 00:39:00,57.7,46.2,29.98,West,280,0.0,0.0,65,0.00,,,0.00,WUHU216WMR968SP,2013-04-25 07:39:00,
2013-04-25 00:44:00,57.7,46.2,29.98,WNW,300,0.0,0.0,65,0.00,,,0.00,WUHU216WMR968SP,2013-04-25 07:44:00,
2013-04-25 00:49:00,57.6,46.1,29.98,WNW,300,0.0,0.0,65,0.00,,,0.00,WUHU216WMR968SP,2013-04-25 07:49:00,
2013-04-25 00:55:00,57.6,46.1,29.98,WNW,301,0.0,0.0,65,0.00,,,0.00,WUHU216WMR968SP,2013-04-25 07:55:00,
2013-04-25 01:00:00,57.6,46.1,29.98,WNW,302,0.0,0.0,65,0.00,,,0.00,WUHU216WMR968SP,2013-04-25 08:00:00,
2013-04-25 01:05:00,57.6,46.1,29.98,WNW,302,0.0,0.0,65,0.00,,,0.00,WUHU216WMR968SP,2013-04-25 08:05:00,
2013-04-25 01:10:00,57.4,45.9,29.98,WNW,301,0.0,0.0,65,0.00,,,0.00,WUHU216WMR968SP,2013-04-25 08:10:00,
2013-04-25 01:15:00,57.6,46.1,29.98,WNW,301,0.0,0.0,65,0.00,,,0.00,WUHU216WMR968SP,2013-04-25 08:15:00,
2013-04-25 01:20:00,57.4,45.9,29.98,WNW,302,0.0,0.0,65,0.00,,,0.00,WUHU216WMR968SP,2013-04-25 08:20:00,
2013-04-25 01:25:00,57.6,46.1,29.98,SW,226,0.0,0.0,65,0.00,,,0.00,WUHU216WMR968SP,2013-04-25 08:25:00,
2013-04-25 01:30:00,57.6,46.1,29.98,SW,230,0.0,0.0,65,0.00,,,0.00,WUHU216WMR968SP,2013-04-25 08:30:00,
2013-04-25 01:35:00,57.6,46.5,29.98,SW,217,0.0,0.0,66,0.00,,,0.00,WUHU216WMR968SP,2013-04-25 08:35:00,
2013-04-25 01:40:00,57.7,46.6,29.98,SW,224,0.0,0.0,66,0.00,,,0.00,WUHU216WMR968SP,2013-04-25 08:40:00,
2013-04-25 01:45:00,57.9,46.7,29.98,SW,226,0.0,0.0,66,0.00,,,0.00,WUHU216WMR968SP,2013-04-25 08:45:00,
2013-04-25 01:50:00,57.9,46.7,29.98,SW,226,0.0,0.0,66,0.00,,,0.00,WUHU216WMR968SP,2013-04-25 08:50:00,
2013-04-25 01:55:00,57.9,46.7,29.98,SW,226,0.0,0.0,66,0.00,,,0.00,WUHU216WMR968SP,2013-04-25 08:55:00,
2013-04-25 02:00:00,57.9,46.7,29.98,SW,224,0.0,0.0,66,0.00,,,0.00,WUHU216WMR968SP,2013-04-25 09:00:00,
2013-04-25 02:05:00,57.7,46.6,29.98,SW,224,0.0,0.0,66,0.00,,,0.00,WUHU216WMR968SP,2013-04-25 09:05:00,
2013-04-25 02:10:00,57.7,46.6,29.98,SW,224,0.0,0.0,66,0.00,,,0.00,WUHU216WMR968SP,2013-04-25 09:10:00,
2013-04-25 02:15:00,57.7,46.6,29.98,SW,224,0.0,0.0,66,0.00,,,0.00,WUHU216WMR968SP,2013-04-25 09:15:00,
2013-04-25 02:20:00,57.7,46.6,29.98,SW,224,0.0,0.0,66,0.00,,,0.00,WUHU216WMR968SP,2013-04-25 09:20:00,
2013-04-25 02:25:00,57.7,46.6,29.98,SW,224,0.0,0.0,66,0.00,,,0.00,WUHU216WMR968SP,2013-04-25 09:25:00,
2013-04-25 02:30:00,57.9,46.7,29.98,SW,224,0.0,0.0,66,0.00,,,0.00,WUHU216WMR968SP,2013-04-25 09:30:00,
2013-04-25 02:35:00,57.7,46.6,29.98,SW,224,0.0,0.0,66,0.00,,,0.00,WUHU216WMR968SP,2013-04-25 09:35:00,
2013-04-25 02:40:00,57.7,46.6,29.98,SW,224,0.0,0.0,66,0.00,,,0.00,WUHU216WMR968SP,2013-04-25 09:40:00,
2013-04-25 02:45:00,57.7,46.6,29.98,SW,224,0.0,0.0,66,0.00,,,0.00,WUHU216WMR968SP,2013-04-25 09:45:00,
2013-04-25 02:50:00,57.7,46.6,29.98,SW,224,0.0,0.0,66,0.00,,,0.00,WUHU216WMR968SP,2013-04-25 09:50:00,
2013-04-25 02:55:00,57.6,46.5,29.98,SW,224,0.0,0.0,66,0.00,,,0.00,WUHU216WMR968SP,2013-04-25 09:55:00,
2013-04-25 03:00:00,57.7,46.6,29.98,SW,224,0.0,0.0,66,0.00,,,0.00,WUHU216WMR968SP,2013-04-25 10:00:00,
2013-04-25 03:05:00,57.7,46.6,29.98,SW,224,0.0,0.0,66,0.00,,,0.00,WUHU216WMR968SP,2013-04-25 10:05:00,
2013-04-25 03:10:00,57.7,46.6,29.98,SW,224,0.0,0.0,66,0.00,,,0.00,WUHU216WMR968SP,2013-04-25 10:10:00,
2013-04-25 03:15:00,57.7,46.6,29.98,SW,224,0.0,0.0,66,0.00,,,0.00,WUHU216WMR968SP,2013-04-25 10:15:00,
2013-04-25 03:20:00,57.7,46.6,29.98,SW,224,0.0,0.0,66,0.00,,,0.00,WUHU216WMR968SP,2013-04-25 10:20:00,
2013-04-25 03:25:00,57.7,46.6,29.98,SW,224,0.0,0.0,66,0.00,,,0.00,WUHU216WMR968SP,2013-04-25 10:25:00,
2013-04-25 03:30:00,57.9,46.7,29.98,SW,224,0.0,0.0,66,0.00,,,0.00,WUHU216WMR968SP,2013-04-25 10:30:00,
2013-04-25 03:35:00,57.9,46.7,29.98,SW,224,0.0,0.0,66,0.00,,,0.00,WUHU216WMR968SP,2013-04-25 10:35:00,
2013-04-25 03:40:00,57.9,46.7,29.98,SW,224,0.0,0.0,66,0.00,,,0.00,WUHU216WMR968SP,2013-04-25 10:40:00,
2013-04-25 03:45:00,57.7,46.6,29.98,SW,224,0.0,0.0,66,0.00,,,0.00,WUHU216WMR968SP,2013-04-25 10:45:00,
2013-04-25 03:50:00,57.7,46.6,29.98,SW,224,0.0,0.0,66,0.00,,,0.00,WUHU216WMR968SP,2013-04-25 10:50:00,
2013-04-25 03:55:00,57.7,46.6,29.98,SW,224,0.0,0.0,66,0.00,,,0.00,WUHU216WMR968SP,2013-04-25 10:55:00,
2013-04-25 04:00:00,57.7,46.6,29.98,SW,224,0.0,0.0,66,0.00,,,0.00,WUHU216WMR968SP,2013-04-25 11:00:00,
2013-04-25 04:05:00,57.9,46.7,29.98,SW,224,0.0,0.0,66,0.00,,,0.00,WUHU216WMR968SP,2013-04-25 11:05:00,
2013-04-25 04:10:00,57.7,46.6,29.98,SW,224,0.0,0.0,66,0.00,,,0.00,WUHU216WMR968SP,2013-04-25 11:10:00,
2013-04-25 04:15:00,57.9,46.7,29.98,SW,224,0.0,0.0,66,0.00,,,0.00,WUHU216WMR968SP,2013-04-25 11:15:00,
2013-04-25 04:20:00,57.9,46.7,29.98,SW,224,0.0,0.0,66,0.00,,,0.00,WUHU216WMR968SP,2013-04-25 11:20:00,
2013-04-25 04:25:00,57.9,46.7,29.98,SW,224,0.0,0.0,66,0.00,,,0.00,WUHU216WMR968SP,2013-04-25 11:25:00,
2013-04-25 04:30:00,57.9,46.7,29.98,SW,224,0.0,0.0,66,0.00,,,0.00,WUHU216WMR968SP,2013-04-25 11:30:00,
2013-04-25 04:35:00,58.1,46.9,29.98,SW,224,0.0,0.0,66,0.00,,,0.00,WUHU216WMR968SP,2013-04-25 11:35:00,
2013-04-25 04:40:00,58.1,46.9,29.98,SW,224,0.0,0.0,66,0.00,,,0.00,WUHU216WMR968SP,2013-04-25 11:40:00,
2013-04-25 04:45:00,58.1,46.9,29.98,SW,224,0.0,0.0,66,0.00,,,0.00,WUHU216WMR968SP,2013-04-25 11:45:00,
2013-04-25 04:50:00,58.3,47.1,29.98,SW,224,0.0,0.0,66,0.00,,,0.00,WUHU216WMR968SP,2013-04-25 11:50:00,
2013-04-25 04:55:00,58.3,47.1,29.98,SW,224,0.0,0.0,66,0.00,,,0.00,WUHU216WMR968SP,2013-04-25 11:55:00,
2013-04-25 05:00:00,58.3,47.1,29.98,SW,224,0.0,0.0,66,0.00,,,0.00,WUHU216WMR968SP,2013-04-25 12:00:00,
2013-04-25 05:05:00,58.1,46.9,29.98,SW,224,0.0,0.0,66,0.00,,,0.00,WUHU216WMR968SP,2013-04-25 12:05:00,
2013-04-25 05:10:00,58.1,46.5,29.98,SSW,197,0.0,0.0,65,0.00,,,0.00,WUHU216WMR968SP,2013-04-25 12:10:00,
2013-04-25 05:15:00,58.1,46.5,29.98,SSW,202,0.0,0.0,65,0.00,,,0.00,WUHU216WMR968SP,2013-04-25 12:15:00,
2013-04-25 05:20:00,58.1,46.5,29.98,SSW,205,0.0,0.0,65,0.00,,,0.00,WUHU216WMR968SP,2013-04-25 12:20:00,
2013-04-25 05:25:00,58.1,46.5,29.98,SSW,205,0.0,0.0,65,0.00,,,0.00,WUHU216WMR968SP,2013-04-25 12:25:00,
2013-04-25 05:30:00,58.1,46.5,29.98,SSW,205,0.0,0.0,65,0.00,,,0.00,WUHU216WMR968SP,2013-04-25 12:30:00,
2013-04-25 05:36:00,58.1,46.9,29.98,SSW,205,0.0,0.0,66,0.00,,,0.00,WUHU216WMR968SP,2013-04-25 12:36:00,
2013-04-25 05:41:00,58.3,46.7,29.98,SSW,205,0.0,0.0,65,0.00,,,0.00,WUHU216WMR968SP,2013-04-25 12:41:00,
2013-04-25 05:46:00,58.3,46.7,29.98,SSW,205,0.0,0.0,65,0.00,,,0.00,WUHU216WMR968SP,2013-04-25 12:46:00,
2013-04-25 05:51:00,58.3,46.7,29.98,SSW,205,0.0,0.0,65,0.00,,,0.00,WUHU216WMR968SP,2013-04-25 12:51:00,
2013-04-25 05:56:00,58.3,47.1,29.98,SSW,205,0.0,0.0,66,0.00,,,0.00,WUHU216WMR968SP,2013-04-25 12:56:00,
2013-04-25 06:01:00,58.1,46.9,29.98,SSW,205,0.0,0.0,66,0.00,,,0.00,WUHU216WMR968SP,2013-04-25 13:01:00,
2013-04-25 06:06:00,58.1,46.9,29.98,SSW,205,0.0,0.0,66,0.00,,,0.00,WUHU216WMR968SP,2013-04-25 13:06:00,
2013-04-25 06:11:00,57.9,46.7,29.98,SSW,205,0.0,0.0,66,0.00,,,0.00,WUHU216WMR968SP,2013-04-25 13:11:00,
2013-04-25 06:16:00,57.9,46.7,29.98,SSW,205,0.0,0.0,66,0.00,,,0.00,WUHU216WMR968SP,2013-04-25 13:16:00,
2013-04-25 06:21:00,57.9,46.7,30.01,SSW,204,0.0,0.0,66,0.00,,,0.00,WUHU216WMR968SP,2013-04-25 13:21:00,
2013-04-25 06:26:00,57.9,46.7,30.01,SSW,206,0.0,0.0,66,0.00,,,0.00,WUHU216WMR968SP,2013-04-25 13:26:00,
2013-04-25 06:31:00,57.9,46.7,30.01,SSW,212,0.0,0.0,66,0.00,,,0.00,WUHU216WMR968SP,2013-04-25 13:31:00,
2013-04-25 06:36:00,57.9,46.7,30.01,SSW,212,0.0,0.0,66,0.00,,,0.00,WUHU216WMR968SP,2013-04-25 13:36:00,
2013-04-25 06:41:00,57.9,46.7,30.01,SSW,212,0.0,0.0,66,0.00,,,0.00,WUHU216WMR968SP,2013-04-25 13:41:00,
2013-04-25 06:46:00,57.9,46.7,30.01,SW,236,0.0,0.0,66,0.00,,,0.00,WUHU216WMR968SP,2013-04-25 13:46:00,
2013-04-25 06:51:00,57.9,46.7,30.01,SW,236,0.0,0.0,66,0.00,,,0.00,WUHU216WMR968SP,2013-04-25 13:51:00,
2013-04-25 06:56:00,57.9,46.7,30.01,SW,227,0.0,0.0,66,0.00,,,0.00,WUHU216WMR968SP,2013-04-25 13:56:00,
2013-04-25 07:01:00,58.1,46.9,30.01,SW,229,0.0,0.0,66,0.00,,,0.00,WUHU216WMR968SP,2013-04-25 14:01:00,
2013-04-25 07:06:00,58.1,46.9,30.01,SW,229,0.0,0.0,66,0.00,,,0.00,WUHU216WMR968SP,2013-04-25 14:06:00,
2013-04-25 07:11:00,58.1,46.9,30.01,SW,229,0.0,0.0,66,0.00,,,0.00,WUHU216WMR968SP,2013-04-25 14:11:00,
2013-04-25 07:16:00,58.3,47.1,30.01,SW,216,0.0,0.0,66,0.00,,,0.00,WUHU216WMR968SP,2013-04-25 14:16:00,
2013-04-25 07:21:00,58.5,47.3,29.98,SW,221,0.0,0.0,66,0.00,,,0.00,WUHU216WMR968SP,2013-04-25 14:21:00,
2013-04-25 07:26:00,58.6,47.4,29.98,SSW,202,0.0,0.0,66,0.00,,,0.00,WUHU216WMR968SP,2013-04-25 14:26:00,
2013-04-25 07:31:00,58.8,47.2,29.98,SSW,202,0.0,0.0,65,0.00,,,0.00,WUHU216WMR968SP,2013-04-25 14:31:00,
2013-04-25 07:36:00,59.0,47.4,30.01,SSW,194,0.0,0.0,65,0.00,,,0.00,WUHU216WMR968SP,2013-04-25 14:36:00,
2013-04-25 07:41:00,59.0,47.0,30.01,SSW,195,0.0,0.0,64,0.00,,,0.00,WUHU216WMR968SP,2013-04-25 14:41:00,
2013-04-25 07:46:00,59.0,47.0,30.01,SSW,197,0.0,0.0,64,0.00,,,0.00,WUHU216WMR968SP,2013-04-25 14:46:00,
2013-04-25 07:51:00,59.0,47.0,30.01,SSW,197,0.0,0.0,64,0.00,,,0.00,WUHU216WMR968SP,2013-04-25 14:51:00,
2013-04-25 07:56:00,59.0,47.0,30.01,SSW,201,0.0,0.0,64,0.00,,,0.00,WUHU216WMR968SP,2013-04-25 14:56:00,
2013-04-25 08:01:00,58.8,46.8,30.01,WNW,294,0.0,0.0,64,0.00,,,0.00,WUHU216WMR968SP,2013-04-25 15:01:00,
2013-04-25 08:06:00,58.8,46.8,30.01,WNW,294,0.0,0.0,64,0.00,,,0.00,WUHU216WMR968SP,2013-04-25 15:06:00,
2013-04-25 08:11:00,58.8,46.8,30.01,SW,231,0.0,0.0,64,0.00,,,0.00,WUHU216WMR968SP,2013-04-25 15:11:00,
2013-04-25 08:16:00,59.0,47.0,30.01,WSW,253,0.0,0.0,64,0.00,,,0.00,WUHU216WMR968SP,2013-04-25 15:16:00,
2013-04-25 08:21:00,59.0,46.6,30.01,WSW,253,0.0,0.0,63,0.00,,,0.00,WUHU216WMR968SP,2013-04-25 15:21:00,
2013-04-25 08:26:00,59.2,46.3,30.01,SW,227,0.0,0.0,62,0.00,,,0.00,WUHU216WMR968SP,2013-04-25 15:26:00,
2013-04-25 08:31:00,59.5,46.6,30.01,SW,227,0.0,0.0,62,0.00,,,0.00,WUHU216WMR968SP,2013-04-25 15:31:00,
2013-04-25 08:36:00,59.7,46.4,30.01,SW,227,0.0,0.0,61,0.00,,,0.00,WUHU216WMR968SP,2013-04-25 15:36:00,
2013-04-25 08:41:00,59.9,46.1,30.01,SW,228,0.0,0.0,60,0.00,,,0.00,WUHU216WMR968SP,2013-04-25 15:41:00,
2013-04-25 08:46:00,60.3,46.5,30.01,SE,137,0.0,0.0,60,0.00,,,0.00,WUHU216WMR968SP,2013-04-25 15:46:00,
2013-04-25 08:51:00,60.4,46.6,30.04,SE,137,0.0,0.0,60,0.00,,,0.00,WUHU216WMR968SP,2013-04-25 15:51:00,
2013-04-25 08:56:00,60.6,46.3,30.04,WSW,251,0.0,0.0,59,0.00,,,0.00,WUHU216WMR968SP,2013-04-25 15:56:00,
2013-04-25 09:01:00,60.6,45.9,30.04,SW,214,0.0,0.0,58,0.00,,,0.00,WUHU216WMR968SP,2013-04-25 16:01:00,
2013-04-25 09:06:00,60.8,46.0,30.04,WSW,240,0.0,0.0,58,0.00,,,0.00,WUHU216WMR968SP,2013-04-25 16:06:00,
2013-04-25 09:11:00,61.0,46.2,30.04,SE,145,0.0,0.0,58,0.00,,,0.00,WUHU216WMR968SP,2013-04-25 16:11:00,
2013-04-25 09:16:00,61.2,46.0,30.04,SE,137,0.0,0.0,57,0.00,,,0.00,WUHU216WMR968SP,2013-04-25 16:16:00,
2013-04-25 09:21:00,61.2,46.0,30.04,WSW,244,0.0,0.0,57,0.00,,,0.00,WUHU216WMR968SP,2013-04-25 16:21:00,
2013-04-25 09:26:00,61.3,46.0,30.04,SSE,152,0.0,0.0,57,0.00,,,0.00,WUHU216WMR968SP,2013-04-25 16:26:00,
2013-04-25 09:31:00,61.3,46.0,30.04,WSW,244,0.0,0.0,57,0.00,,,0.00,WUHU216WMR968SP,2013-04-25 16:31:00,
2013-04-25 09:36:00,61.5,46.2,30.04,SW,223,0.0,0.0,57,0.00,,,0.00,WUHU216WMR968SP,2013-04-25 16:36:00,
2013-04-25 09:41:00,61.2,45.5,30.04,WSW,244,0.0,0.0,56,0.00,,,0.00,WUHU216WMR968SP,2013-04-25 16:41:00,
2013-04-25 09:46:00,61.0,45.3,30.04,WNW,289,0.0,0.0,56,0.00,,,0.00,WUHU216WMR968SP,2013-04-25 16:46:00,
2013-04-25 09:51:00,61.2,46.0,30.07,WSW,251,0.0,0.0,57,0.00,,,0.00,WUHU216WMR968SP,2013-04-25 16:51:00,
2013-04-25 09:56:00,61.2,46.0,30.07,SSW,211,0.0,0.0,57,0.00,,,0.00,WUHU216WMR968SP,2013-04-25 16:56:00,
2013-04-25 10:01:00,61.3,45.6,30.07,SW,226,0.0,0.0,56,0.00,,,0.00,WUHU216WMR968SP,2013-04-25 17:01:00,
2013-04-25 10:06:00,61.5,45.8,30.07,ESE,121,0.0,0.0,56,0.00,,,0.00,WUHU216WMR968SP,2013-04-25 17:06:00,
2013-04-25 10:11:00,61.9,46.1,30.07,SSE,154,0.0,0.0,56,0.00,,,0.00,WUHU216WMR968SP,2013-04-25 17:11:00,
2013-04-25 10:16:00,62.2,46.4,30.07,East,99,0.0,0.0,56,0.00,,,0.00,WUHU216WMR968SP,2013-04-25 17:16:00,
2013-04-25 10:21:00,62.4,46.6,30.07,East,81,0.0,0.0,56,0.00,,,0.00,WUHU216WMR968SP,2013-04-25 17:21:00,
2013-04-25 10:26:00,63.0,46.7,30.07,East,101,0.0,0.0,55,0.00,,,0.00,WUHU216WMR968SP,2013-04-25 17:26:00,
2013-04-25 10:31:00,63.3,47.0,30.07,SW,231,0.0,0.0,55,0.00,,,0.00,WUHU216WMR968SP,2013-04-25 17:31:00,
2013-04-25 10:36:00,63.9,47.5,30.07,SW,233,0.0,0.0,55,0.00,,,0.00,WUHU216WMR968SP,2013-04-25 17:36:00,
2013-04-25 10:41:00,64.0,47.6,30.07,South,190,0.0,0.0,55,0.00,,,0.00,WUHU216WMR968SP,2013-04-25 17:41:00,
2013-04-25 10:46:00,64.6,47.7,30.07,SE,130,0.0,0.0,54,0.00,,,0.00,WUHU216WMR968SP,2013-04-25 17:46:00,
2013-04-25 10:51:00,65.1,48.1,30.07,SW,232,0.0,0.0,54,0.00,,,0.00,WUHU216WMR968SP,2013-04-25 17:51:00,
2013-04-25 10:56:00,65.3,48.3,30.07,SSW,212,0.0,0.0,54,0.00,,,0.00,WUHU216WMR968SP,2013-04-25 17:56:00,
2013-04-25 11:01:00,65.5,48.0,30.07,SSE,164,0.0,0.0,53,0.00,,,0.00,WUHU216WMR968SP,2013-04-25 18:01:00,
2013-04-25 11:06:00,65.5,48.0,30.07,NE,42,0.0,0.0,53,0.00,,,0.00,WUHU216WMR968SP,2013-04-25 18:06:00,
2013-04-25 11:11:00,65.3,47.8,30.07,South,172,0.0,0.0,53,0.00,,,0.00,WUHU216WMR968SP,2013-04-25 18:11:00,
2013-04-25 11:16:00,65.7,48.2,30.07,South,175,0.0,0.0,53,0.00,,,0.00,WUHU216WMR968SP,2013-04-25 18:16:00,
2013-04-25 11:21:00,66.0,48.5,30.07,SSW,206,2.7,6.3,53,0.00,,,0.00,WUHU216WMR968SP,2013-04-25 18:21:00,
2013-04-25 11:26:00,66.0,48.5,30.07,SSW,197,2.2,6.3,53,0.00,,,0.00,WUHU216WMR968SP,2013-04-25 18:26:00,
2013-04-25 11:31:00,66.0,48.5,30.07,WSW,244,2.7,6.3,53,0.00,,,0.00,WUHU216WMR968SP,2013-04-25 18:31:00,
2013-04-25 11:36:00,65.7,48.2,30.04,WSW,240,3.1,5.8,53,0.00,,,0.00,WUHU216WMR968SP,2013-04-25 18:36:00,
2013-04-25 11:41:00,65.3,47.8,30.04,NW,322,2.2,5.8,53,0.00,,,0.00,WUHU216WMR968SP,2013-04-25 18:41:00,
2013-04-25 11:46:00,64.9,47.4,30.04,SSW,196,2.2,4.9,53,0.00,,,0.00,WUHU216WMR968SP,2013-04-25 18:46:00,
2013-04-25 11:51:00,65.3,47.8,30.04,SSE,159,0.0,4.5,53,0.00,,,0.00,WUHU216WMR968SP,2013-04-25 18:51:00,
2013-04-25 11:56:00,65.7,48.2,30.04,SSW,204,4.0,4.9,53,0.00,,,0.00,WUHU216WMR968SP,2013-04-25 18:56:00,
2013-04-25 12:01:00,66.0,48.5,30.04,SSW,194,2.7,5.4,53,0.00,,,0.00,WUHU216WMR968SP,2013-04-25 19:01:00,
2013-04-25 12:06:00,66.4,48.3,30.04,ESE,105,0.0,5.4,52,0.00,,,0.00,WUHU216WMR968SP,2013-04-25 19:06:00,
2013-04-25 12:11:00,66.4,48.3,30.04,ESE,108,2.7,4.0,52,0.00,,,0.00,WUHU216WMR968SP,2013-04-25 19:11:00,
2013-04-25 12:16:00,66.2,48.1,30.04,East,90,0.0,4.0,52,0.00,,,0.00,WUHU216WMR968SP,2013-04-25 19:16:00,
2013-04-25 12:21:00,66.0,48.5,30.04,WSW,242,0.0,3.6,53,0.00,,,0.00,WUHU216WMR968SP,2013-04-25 19:21:00,
2013-04-25 12:26:00,66.2,48.1,30.04,WSW,240,0.0,3.6,52,0.00,,,0.00,WUHU216WMR968SP,2013-04-25 19:26:00,
2013-04-25 12:31:00,66.4,48.3,30.04,SSW,213,2.2,4.0,52,0.00,,,0.00,WUHU216WMR968SP,2013-04-25 19:31:00,
2013-04-25 12:36:00,66.6,47.4,30.04,WNW,300,3.1,6.3,50,0.00,,,0.00,WUHU216WMR968SP,2013-04-25 19:36:00,
2013-04-25 12:41:00,66.6,48.5,30.04,SW,220,4.5,8.1,52,0.00,,,0.00,WUHU216WMR968SP,2013-04-25 19:41:00,
2013-04-25 12:46:00,66.7,48.6,30.04,SSW,201,2.7,8.1,52,0.00,,,0.00,WUHU216WMR968SP,2013-04-25 19:46:00,
2013-04-25 12:51:00,67.1,49.0,30.04,SSW,202,3.1,4.9,52,0.00,,,0.00,WUHU216WMR968SP,2013-04-25 19:51:00,
2013-04-25 12:56:00,67.5,49.3,30.04,SW,236,2.7,4.0,52,0.00,,,0.00,WUHU216WMR968SP,2013-04-25 19:56:00,
2013-04-25 13:01:00,67.5,48.2,30.04,NNE,12,0.0,4.0,50,0.00,,,0.00,WUHU216WMR968SP,2013-04-25 20:01:00,
2013-04-25 13:06:00,67.6,48.3,30.04,ESE,103,0.0,4.0,50,0.00,,,0.00,WUHU216WMR968SP,2013-04-25 20:06:00,
2013-04-25 13:11:00,68.0,48.7,30.04,SW,234,4.0,5.8,50,0.00,,,0.00,WUHU216WMR968SP,2013-04-25 20:11:00,
2013-04-25 13:16:00,68.0,48.7,30.04,ESE,104,0.0,5.8,50,0.00,,,0.00,WUHU216WMR968SP,2013-04-25 20:16:00,
2013-04-25 13:21:00,68.0,48.7,30.04,NNW,333,4.9,6.7,50,0.00,,,0.00,WUHU216WMR968SP,2013-04-25 20:21:00,
2013-04-25 13:26:00,67.5,48.2,30.04,North,9,3.1,6.7,50,0.00,,,0.00,WUHU216WMR968SP,2013-04-25 20:26:00,
2013-04-25 13:31:00,67.5,48.2,30.04,SSW,197,4.0,6.7,50,0.00,,,0.00,WUHU216WMR968SP,2013-04-25 20:31:00,
2013-04-25 13:36:00,67.8,48.5,30.04,SSE,150,2.2,6.7,50,0.00,,,0.00,WUHU216WMR968SP,2013-04-25 20:36:00,
2013-04-25 13:41:00,68.4,49.1,30.04,NW,307,2.2,5.4,50,0.00,,,0.00,WUHU216WMR968SP,2013-04-25 20:41:00,
2013-04-25 13:46:00,68.9,49.5,30.04,SSW,192,4.9,6.3,50,0.00,,,0.00,WUHU216WMR968SP,2013-04-25 20:46:00,
2013-04-25 13:51:00,69.3,49.9,30.01,SSW,209,0.0,6.3,50,0.00,,,0.00,WUHU216WMR968SP,2013-04-25 20:51:00,
2013-04-25 13:56:00,69.6,50.2,30.01,SSE,147,4.9,5.8,50,0.00,,,0.00,WUHU216WMR968SP,2013-04-25 20:56:00,
2013-04-25 14:01:00,69.6,50.2,30.01,ESE,121,3.6,5.8,50,0.00,,,0.00,WUHU216WMR968SP,2013-04-25 21:01:00,
2013-04-25 14:06:00,69.8,48.7,29.98,WSW,238,3.6,6.3,47,0.00,,,0.00,WUHU216WMR968SP,2013-04-25 21:06:00,
2013-04-25 14:12:00,68.9,47.8,29.98,WSW,253,4.9,7.6,47,0.00,,,0.00,WUHU216WMR968SP,2013-04-25 21:12:00,
2013-04-25 14:17:00,68.2,48.9,29.98,SSE,160,3.6,7.6,50,0.00,,,0.00,WUHU216WMR968SP,2013-04-25 21:17:00,
2013-04-25 14:22:00,68.7,49.4,29.98,WSW,243,4.0,6.3,50,0.00,,,0.00,WUHU216WMR968SP,2013-04-25 21:22:00,
2013-04-25 14:27:00,69.3,49.9,29.98,SE,127,3.6,7.6,50,0.00,,,0.00,WUHU216WMR968SP,2013-04-25 21:27:00,
2013-04-25 14:32:00,69.8,48.7,29.98,West,265,2.7,9.2,47,0.00,,,0.00,WUHU216WMR968SP,2013-04-25 21:32:00,
2013-04-25 14:37:00,69.8,48.7,29.98,SW,236,4.9,9.2,47,0.00,,,0.00,WUHU216WMR968SP,2013-04-25 21:37:00,
2013-04-25 14:42:00,70.2,49.0,29.98,SW,220,3.1,6.7,47,0.00,,,0.00,WUHU216WMR968SP,2013-04-25 21:42:00,
2013-04-25 14:47:00,70.3,49.1,29.98,SW,231,4.5,6.3,47,0.00,,,0.00,WUHU216WMR968SP,2013-04-25 21:47:00,
2013-04-25 14:52:00,70.0,48.8,29.98,SW,219,2.7,6.3,47,0.00,,,0.00,WUHU216WMR968SP,2013-04-25 21:52:00,
2013-04-25 14:57:00,69.8,48.7,29.98,WSW,251,2.2,5.8,47,0.00,,,0.00,WUHU216WMR968SP,2013-04-25 21:57:00,
2013-04-25 15:02:00,69.8,48.7,29.98,West,263,2.7,5.4,47,0.00,,,0.00,WUHU216WMR968SP,2013-04-25 22:02:00,
2013-04-25 15:07:00,69.6,48.5,29.98,NW,310,3.6,5.8,47,0.00,,,0.00,WUHU216WMR968SP,2013-04-25 22:07:00,
2013-04-25 15:12:00,69.4,48.3,29.98,NW,308,3.1,6.3,47,0.00,,,0.00,WUHU216WMR968SP,2013-04-25 22:12:00,
2013-04-25 15:17:00,69.3,48.2,29.98,SSW,194,2.7,6.3,47,0.00,,,0.00,WUHU216WMR968SP,2013-04-25 22:17:00,
2013-04-25 15:22:00,69.6,48.5,29.98,WSW,246,3.6,7.2,47,0.00,,,0.00,WUHU216WMR968SP,2013-04-25 22:22:00,
2013-04-25 15:27:00,69.6,48.5,29.98,NW,308,3.1,8.3,47,0.00,,,0.00,WUHU216WMR968SP,2013-04-25 22:27:00,
2013-04-25 15:32:00,69.3,48.2,29.98,NW,308,2.7,8.3,47,0.00,,,0.00,WUHU216WMR968SP,2013-04-25 22:32:00,
2013-04-25 15:37:00,69.1,48.0,29.98,South,172,4.0,7.2,47,0.00,,,0.00,WUHU216WMR968SP,2013-04-25 22:37:00,
2013-04-25 15:42:00,69.3,48.2,29.98,SSW,209,2.7,7.6,47,0.00,,,0.00,WUHU216WMR968SP,2013-04-25 22:42:00,
2013-04-25 15:47:00,69.6,48.5,29.98,South,188,4.0,8.7,47,0.00,,,0.00,WUHU216WMR968SP,2013-04-25 22:47:00,
2013-04-25 15:52:00,70.0,48.8,29.98,SSW,204,3.1,8.7,47,0.00,,,0.00,WUHU216WMR968SP,2013-04-25 22:52:00,
2013-04-25 15:57:00,70.5,49.3,29.98,South,178,4.9,8.3,47,0.00,,,0.00,WUHU216WMR968SP,2013-04-25 22:57:00,
2013-04-25 16:02:00,70.9,49.7,29.98,SSW,208,4.0,8.3,47,0.00,,,0.00,WUHU216WMR968SP,2013-04-25 23:02:00,
2013-04-25 16:07:00,71.1,49.9,29.98,WNW,298,6.7,10.1,47,0.00,,,0.00,WUHU216WMR968SP,2013-04-25 23:07:00,
2013-04-25 16:12:00,70.5,49.3,29.98,West,259,3.6,10.1,47,0.00,,,0.00,WUHU216WMR968SP,2013-04-25 23:12:00,
2013-04-25 16:17:00,70.3,49.1,29.98,SSW,211,2.2,7.6,47,0.00,,,0.00,WUHU216WMR968SP,2013-04-25 23:17:00,
2013-04-25 16:22:00,70.5,49.3,29.98,SW,235,5.4,8.1,47,0.00,,,0.00,WUHU216WMR968SP,2013-04-25 23:22:00,
2013-04-25 16:27:00,70.0,48.8,29.98,SW,218,2.7,8.1,47,0.00,,,0.00,WUHU216WMR968SP,2013-04-25 23:27:00,
2013-04-25 16:32:00,70.0,48.8,29.98,NNW,346,2.7,8.3,47,0.00,,,0.00,WUHU216WMR968SP,2013-04-25 23:32:00,
2013-04-25 16:37:00,70.0,48.8,29.98,SW,217,6.3,8.3,47,0.00,,,0.00,WUHU216WMR968SP,2013-04-25 23:37:00,
2013-04-25 16:42:00,70.2,49.0,29.98,SW,221,3.6,8.7,47,0.00,,,0.00,WUHU216WMR968SP,2013-04-25 23:42:00,
2013-04-25 16:47:00,70.3,49.1,29.98,WSW,244,6.3,10.5,47,0.00,,,0.00,WUHU216WMR968SP,2013-04-25 23:47:00,
2013-04-25 16:52:00,70.3,49.1,29.98,SW,226,4.9,10.5,47,0.00,,,0.00,WUHU216WMR968SP,2013-04-25 23:52:00,
2013-04-25 16:57:00,70.5,49.3,29.98,West,260,6.3,9.2,47,0.00,,,0.00,WUHU216WMR968SP,2013-04-25 23:57:00,
2013-04-25 17:02:00,70.5,49.3,29.98,SSW,203,4.0,10.1,47,0.00,,,0.00,WUHU216WMR968SP,2013-04-26 00:02:00,
2013-04-25 17:07:00,70.3,49.1,29.98,SW,214,5.4,10.1,47,0.00,,,0.00,WUHU216WMR968SP,2013-04-26 00:07:00,
2013-04-25 17:12:00,70.2,49.0,29.98,WSW,251,4.9,8.7,47,0.00,,,0.00,WUHU216WMR968SP,2013-04-26 00:12:00,
2013-04-25 17:17:00,69.8,48.7,29.98,SW,234,3.6,7.6,47,0.00,,,0.00,WUHU216WMR968SP,2013-04-26 00:17:00,
2013-04-25 17:22:00,69.6,48.5,29.98,WSW,239,3.1,8.1,47,0.00,,,0.00,WUHU216WMR968SP,2013-04-26 00:22:00,
2013-04-25 17:27:00,69.3,48.2,29.98,West,259,3.1,10.1,47,0.00,,,0.00,WUHU216WMR968SP,2013-04-26 00:27:00,
2013-04-25 17:32:00,69.1,48.0,29.98,NW,308,2.7,10.1,47,0.00,,,0.00,WUHU216WMR968SP,2013-04-26 00:32:00,
2013-04-25 17:37:00,69.3,48.2,29.98,SW,219,6.3,8.3,47,0.00,,,0.00,WUHU216WMR968SP,2013-04-26 00:37:00,
2013-04-25 17:42:00,69.3,48.2,29.98,SW,236,0.0,8.3,47,0.00,,,0.00,WUHU216WMR968SP,2013-04-26 00:42:00,
2013-04-25 17:47:00,68.9,47.8,29.98,West,263,0.0,6.3,47,0.00,,,0.00,WUHU216WMR968SP,2013-04-26 00:47:00,
2013-04-25 17:52:00,68.7,47.7,29.98,NW,320,0.0,0.0,47,0.00,,,0.00,WUHU216WMR968SP,2013-04-26 00:52:00,
2013-04-25 17:57:00,68.5,47.5,29.98,WSW,238,0.0,0.0,47,0.00,,,0.00,WUHU216WMR968SP,2013-04-26 00:57:00,
2013-04-25 18:02:00,68.4,47.4,29.98,WSW,248,0.0,0.0,47,0.00,,,0.00,WUHU216WMR968SP,2013-04-26 01:02:00,
2013-04-25 18:07:00,68.4,47.4,29.98,SW,235,0.0,0.0,47,0.00,,,0.00,WUHU216WMR968SP,2013-04-26 01:07:00,
2013-04-25 18:12:00,68.2,47.2,29.98,SW,221,0.0,0.0,47,0.00,,,0.00,WUHU216WMR968SP,2013-04-26 01:12:00,
2013-04-25 18:17:00,68.2,47.2,29.98,SW,220,0.0,0.0,47,0.00,,,0.00,WUHU216WMR968SP,2013-04-26 01:17:00,
2013-04-25 18:22:00,68.0,47.0,29.98,SW,234,0.0,0.0,47,0.00,,,0.00,WUHU216WMR968SP,2013-04-26 01:22:00,
2013-04-25 18:27:00,67.6,46.6,29.98,SW,228,0.0,0.0,47,0.00,,,0.00,WUHU216WMR968SP,2013-04-26 01:27:00,
2013-04-25 18:32:00,67.5,46.6,29.98,SW,231,0.0,0.0,47,0.00,,,0.00,WUHU216WMR968SP,2013-04-26 01:32:00,
2013-04-25 18:37:00,67.1,46.2,29.98,NW,312,0.0,0.0,47,0.00,,,0.00,WUHU216WMR968SP,2013-04-26 01:37:00,
2013-04-25 18:42:00,66.7,45.8,29.98,WSW,240,0.0,0.0,47,0.00,,,0.00,WUHU216WMR968SP,2013-04-26 01:42:00,
2013-04-25 18:47:00,66.6,45.7,29.98,West,280,0.0,0.0,47,0.00,,,0.00,WUHU216WMR968SP,2013-04-26 01:47:00,
2013-04-25 18:52:00,66.2,45.4,29.98,WNW,300,0.0,0.0,47,0.00,,,0.00,WUHU216WMR968SP,2013-04-26 01:52:00,
2013-04-25 18:57:00,65.8,45.6,29.98,NW,305,0.0,0.0,48,0.00,,,0.00,WUHU216WMR968SP,2013-04-26 01:57:00,
2013-04-25 19:02:00,65.5,45.3,29.98,NW,315,0.0,0.0,48,0.00,,,0.00,WUHU216WMR968SP,2013-04-26 02:02:00,
2013-04-25 19:07:00,65.1,44.9,29.98,West,271,0.0,0.0,48,0.00,,,0.00,WUHU216WMR968SP,2013-04-26 02:07:00,
2013-04-25 19:12:00,64.9,44.7,29.98,WSW,254,0.0,0.0,48,0.00,,,0.00,WUHU216WMR968SP,2013-04-26 02:12:00,
2013-04-25 19:17:00,64.8,44.6,29.98,SSW,203,0.0,0.0,48,0.00,,,0.00,WUHU216WMR968SP,2013-04-26 02:17:00,
2013-04-25 19:22:00,64.4,44.3,29.98,WNW,298,0.0,0.0,48,0.00,,,0.00,WUHU216WMR968SP,2013-04-26 02:22:00,
2013-04-25 19:27:00,64.0,43.9,29.98,West,272,0.0,0.0,48,0.00,,,0.00,WUHU216WMR968SP,2013-04-26 02:27:00,
2013-04-25 19:32:00,63.9,43.8,29.98,West,267,0.0,0.0,48,0.00,,,0.00,WUHU216WMR968SP,2013-04-26 02:32:00,
2013-04-25 19:37:00,63.5,43.4,30.01,NW,313,0.0,0.0,48,0.00,,,0.00,WUHU216WMR968SP,2013-04-26 02:37:00,
2013-04-25 19:42:00,63.3,43.3,30.01,NW,310,0.0,0.0,48,0.00,,,0.00,WUHU216WMR968SP,2013-04-26 02:42:00,
2013-04-25 19:47:00,63.1,43.1,30.01,West,281,0.0,0.0,48,0.00,,,0.00,WUHU216WMR968SP,2013-04-26 02:47:00,
2013-04-25 19:52:00,63.0,44.6,30.01,West,279,0.0,0.0,51,0.00,,,0.00,WUHU216WMR968SP,2013-04-26 02:52:00,
2013-04-25 19:57:00,62.6,44.3,30.01,WNW,296,0.0,0.0,51,0.00,,,0.00,WUHU216WMR968SP,2013-04-26 02:57:00,
2013-04-25 20:02:00,62.6,44.3,30.01,SW,236,0.0,0.0,51,0.00,,,0.00,WUHU216WMR968SP,2013-04-26 03:02:00,
2013-04-25 20:07:00,62.4,45.6,30.01,WSW,251,0.0,0.0,54,0.00,,,0.00,WUHU216WMR968SP,2013-04-26 03:07:00,
2013-04-25 20:12:00,62.2,45.4,30.01,West,279,0.0,0.0,54,0.00,,,0.00,WUHU216WMR968SP,2013-04-26 03:12:00,
2013-04-25 20:17:00,62.1,45.3,30.01,NW,307,0.0,0.0,54,0.00,,,0.00,WUHU216WMR968SP,2013-04-26 03:17:00,
2013-04-25 20:22:00,62.1,45.3,30.04,NW,310,0.0,0.0,54,0.00,,,0.00,WUHU216WMR968SP,2013-04-26 03:22:00,
2013-04-25 20:27:00,62.1,45.3,30.04,WSW,237,0.0,0.0,54,0.00,,,0.00,WUHU216WMR968SP,2013-04-26 03:27:00,
2013-04-25 20:32:00,62.1,45.3,30.04,WSW,243,0.0,0.0,54,0.00,,,0.00,WUHU216WMR968SP,2013-04-26 03:32:00,
2013-04-25 20:37:00,61.9,45.1,30.07,NW,308,0.0,0.0,54,0.00,,,0.00,WUHU216WMR968SP,2013-04-26 03:37:00,
2013-04-25 20:42:00,61.9,45.1,30.07,NW,308,0.0,0.0,54,0.00,,,0.00,WUHU216WMR968SP,2013-04-26 03:42:00,
2013-04-25 20:47:00,61.9,45.1,30.07,NW,308,0.0,0.0,54,0.00,,,0.00,WUHU216WMR968SP,2013-04-26 03:47:00,
2013-04-25 20:52:00,61.2,44.5,30.07,NW,308,0.0,0.0,54,0.00,,,0.00,WUHU216WMR968SP,2013-04-26 03:52:00,
2013-04-25 20:57:00,60.4,43.7,30.07,NW,308,0.0,0.0,54,0.00,,,0.00,WUHU216WMR968SP,2013-04-26 03:57:00,
2013-04-25 21:02:00,60.1,44.0,30.07,NW,308,0.0,0.0,55,0.00,,,0.00,WUHU216WMR968SP,2013-04-26 04:02:00,
2013-04-25 21:07:00,60.1,44.0,30.07,NW,308,0.0,0.0,55,0.00,,,0.00,WUHU216WMR968SP,2013-04-26 04:07:00,
2013-04-25 21:12:00,60.1,43.5,30.07,NW,308,0.0,0.0,54,0.00,,,0.00,WUHU216WMR968SP,2013-04-26 04:12:00,
2013-04-25 21:17:00,59.9,43.8,30.07,NW,308,0.0,0.0,55,0.00,,,0.00,WUHU216WMR968SP,2013-04-26 04:17:00,
2013-04-25 21:22:00,59.5,43.4,30.07,NW,308,0.0,0.0,55,0.00,,,0.00,WUHU216WMR968SP,2013-04-26 04:22:00,
2013-04-25 21:27:00,59.2,42.6,30.07,NW,316,0.0,0.0,54,0.00,,,0.00,WUHU216WMR968SP,2013-04-26 04:27:00,
2013-04-25 21:32:00,59.0,42.9,30.07,NW,316,0.0,0.0,55,0.00,,,0.00,WUHU216WMR968SP,2013-04-26 04:32:00,
2013-04-25 21:37:00,58.8,42.7,30.07,NW,316,0.0,0.0,55,0.00,,,0.00,WUHU216WMR968SP,2013-04-26 04:37:00,
2013-04-25 21:42:00,58.8,42.7,30.07,NW,316,0.0,0.0,55,0.00,,,0.00,WUHU216WMR968SP,2013-04-26 04:42:00,
2013-04-25 21:47:00,58.8,42.7,30.07,NW,316,0.0,0.0,55,0.00,,,0.00,WUHU216WMR968SP,2013-04-26 04:47:00,
2013-04-25 21:52:00,58.5,42.5,30.07,NW,316,0.0,0.0,55,0.00,,,0.00,WUHU216WMR968SP,2013-04-26 04:52:00,
2013-04-25 21:57:00,58.1,42.1,30.07,NW,316,0.0,0.0,55,0.00,,,0.00,WUHU216WMR968SP,2013-04-26 04:57:00,
2013-04-25 22:02:00,57.9,42.4,30.07,NW,316,0.0,0.0,56,0.00,,,0.00,WUHU216WMR968SP,2013-04-26 05:02:00,
2013-04-25 22:07:00,57.7,42.2,30.10,NW,317,0.0,0.0,56,0.00,,,0.00,WUHU216WMR968SP,2013-04-26 05:07:00,
2013-04-25 22:12:00,57.7,42.2,30.10,NW,317,0.0,0.0,56,0.00,,,0.00,WUHU216WMR968SP,2013-04-26 05:12:00,
2013-04-25 22:17:00,57.7,42.2,30.10,NW,318,0.0,0.0,56,0.00,,,0.00,WUHU216WMR968SP,2013-04-26 05:17:00,
2013-04-25 22:22:00,57.7,42.2,30.07,NW,318,0.0,0.0,56,0.00,,,0.00,WUHU216WMR968SP,2013-04-26 05:22:00,
2013-04-25 22:27:00,57.6,42.1,30.07,NW,318,0.0,0.0,56,0.00,,,0.00,WUHU216WMR968SP,2013-04-26 05:27:00,
2013-04-25 22:32:00,57.6,42.6,30.07,NW,322,0.0,0.0,57,0.00,,,0.00,WUHU216WMR968SP,2013-04-26 05:32:00,
2013-04-25 22:37:00,57.0,42.0,30.10,NW,321,0.0,0.0,57,0.00,,,0.00,WUHU216WMR968SP,2013-04-26 05:37:00,
2013-04-25 22:42:00,56.7,42.2,30.10,NW,321,0.0,0.0,58,0.00,,,0.00,WUHU216WMR968SP,2013-04-26 05:42:00,
2013-04-25 22:47:00,56.7,42.6,30.10,NW,321,0.0,0.0,59,0.00,,,0.00,WUHU216WMR968SP,2013-04-26 05:47:00,
2013-04-25 22:52:00,56.8,42.7,30.10,NW,321,0.0,0.0,59,0.00,,,0.00,WUHU216WMR968SP,2013-04-26 05:52:00,
2013-04-25 22:57:00,57.0,42.9,30.10,NW,321,0.0,0.0,59,0.00,,,0.00,WUHU216WMR968SP,2013-04-26 05:57:00,
2013-04-25 23:02:00,56.8,42.7,30.10,NW,321,0.0,0.0,59,0.00,,,0.00,WUHU216WMR968SP,2013-04-26 06:02:00,
2013-04-25 23:07:00,56.5,42.4,30.10,NW,321,0.0,0.0,59,0.00,,,0.00,WUHU216WMR968SP,2013-04-26 06:07:00,
2013-04-25 23:12:00,56.5,42.9,30.10,NW,321,0.0,0.0,60,0.00,,,0.00,WUHU216WMR968SP,2013-04-26 06:12:00,
2013-04-25 23:17:00,56.7,43.5,30.10,NW,321,0.0,0.0,61,0.00,,,0.00,WUHU216WMR968SP,2013-04-26 06:17:00,
2013-04-25 23:22:00,56.7,43.5,30.10,NW,321,0.0,0.0,61,0.00,,,0.00,WUHU216WMR968SP,2013-04-26 06:22:00,
2013-04-25 23:27:00,56.5,43.3,30.10,NW,321,0.0,0.0,61,0.00,,,0.00,WUHU216WMR968SP,2013-04-26 06:27:00,
2013-04-25 23:32:00,56.7,43.9,30.10,NW,321,0.0,0.0,62,0.00,,,0.00,WUHU216WMR968SP,2013-04-26 06:32:00,
2013-04-25 23:37:00,56.7,43.5,30.07,NW,321,0.0,0.0,61,0.00,,,0.00,WUHU216WMR968SP,2013-04-26 06:37:00,
2013-04-25 23:42:00,56.7,43.9,30.07,NW,321,0.0,0.0,62,0.00,,,0.00,WUHU216WMR968SP,2013-04-26 06:42:00,
2013-04-25 23:47:00,56.7,43.9,30.07,NW,321,0.0,0.0,62,0.00,,,0.00,WUHU216WMR968SP,2013-04-26 06:47:00,
2013-04-25 23:52:00,56.7,43.9,30.10,NW,321,0.0,0.0,62,0.00,,,0.00,WUHU216WMR968SP,2013-04-26 06:52:00,
2013-04-25 23:57:00,56.7,43.9,30.10,NW,321,0.0,0.0,62,0.00,,,0.00,WUHU216WMR968SP,2013-04-26 06:57:00,